sensor_id;sensor_type;location;lat;lon;timestamp;pressure;altitude;pressure_sealevel;temperature;humidity
20023;BME280;10172;42.054;24.546;2022-12-18T00:01:57;98744.22;;;11.60;100.00
20023;BME280;10172;42.054;24.546;2022-12-18T00:04:25;98745.66;;;11.92;100.00
20023;BME280;10172;42.054;24.546;2022-12-18T00:06:51;98743.59;;;11.97;100.00
20023;BME280;10172;42.054;24.546;2022-12-18T00:09:17;98756.50;;;12.68;100.00
20023;BME280;10172;42.054;24.546;2022-12-18T00:11:43;98766.56;;;13.28;100.00
20023;BME280;10172;42.054;24.546;2022-12-18T00:14:09;98783.47;;;13.41;100.00
20023;BME280;10172;42.054;24.546;2022-12-18T00:16:36;98774.06;;;13.71;100.00
20023;BME280;10172;42.054;24.546;2022-12-18T00:19:02;98782.66;;;14.00;100.00
20023;BME280;10172;42.054;24.546;2022-12-18T00:21:29;98790.72;;;14.11;100.00
20023;BME280;10172;42.054;24.546;2022-12-18T00:23:56;98805.25;;;14.20;100.00
20023;BME280;10172;42.054;24.546;2022-12-18T00:26:24;98806.13;;;13.48;100.00
20023;BME280;10172;42.054;24.546;2022-12-18T00:28:50;98807.63;;;13.88;100.00
20023;BME280;10172;42.054;24.546;2022-12-18T00:31:21;98822.00;;;14.11;100.00
20023;BME280;10172;42.054;24.546;2022-12-18T00:33:47;98833.94;;;13.82;100.00
20023;BME280;10172;42.054;24.546;2022-12-18T00:36:18;98839.41;;;12.79;100.00
20023;BME280;10172;42.054;24.546;2022-12-18T00:38:45;98829.31;;;12.18;100.00
20023;BME280;10172;42.054;24.546;2022-12-18T00:41:13;98818.00;;;12.00;100.00
20023;BME280;10172;42.054;24.546;2022-12-18T00:43:39;98840.91;;;12.17;100.00
20023;BME280;10172;42.054;24.546;2022-12-18T00:46:05;98829.75;;;12.64;100.00
20023;BME280;10172;42.054;24.546;2022-12-18T00:48:31;98835.75;;;12.68;100.00
20023;BME280;10172;42.054;24.546;2022-12-18T00:50:57;98831.34;;;12.54;100.00
20023;BME280;10172;42.054;24.546;2022-12-18T00:53:23;98821.44;;;12.03;100.00
20023;BME280;10172;42.054;24.546;2022-12-18T00:55:48;98822.75;;;11.40;100.00
20023;BME280;10172;42.054;24.546;2022-12-18T00:58:16;98830.91;;;11.52;100.00
20023;BME280;10172;42.054;24.546;2022-12-18T01:00:42;98834.63;;;11.63;100.00
20023;BME280;10172;42.054;24.546;2022-12-18T01:03:09;98833.38;;;11.55;100.00
20023;BME280;10172;42.054;24.546;2022-12-18T01:05:39;98832.72;;;11.09;100.00
20023;BME280;10172;42.054;24.546;2022-12-18T01:08:05;98840.50;;;11.68;100.00
20023;BME280;10172;42.054;24.546;2022-12-18T01:10:31;98839.94;;;11.07;100.00
20023;BME280;10172;42.054;24.546;2022-12-18T01:12:56;98822.47;;;11.03;100.00
20023;BME280;10172;42.054;24.546;2022-12-18T01:15:22;98813.72;;;11.15;100.00
20023;BME280;10172;42.054;24.546;2022-12-18T01:17:47;98817.13;;;11.31;100.00
20023;BME280;10172;42.054;24.546;2022-12-18T01:20:13;98816.31;;;11.99;100.00
20023;BME280;10172;42.054;24.546;2022-12-18T01:22:38;98816.28;;;12.53;100.00
20023;BME280;10172;42.054;24.546;2022-12-18T01:25:04;98823.13;;;11.77;100.00
20023;BME280;10172;42.054;24.546;2022-12-18T01:27:31;98829.19;;;11.79;100.00
20023;BME280;10172;42.054;24.546;2022-12-18T01:29:57;98844.91;;;11.13;100.00
20023;BME280;10172;42.054;24.546;2022-12-18T01:32:23;98847.84;;;11.22;100.00
20023;BME280;10172;42.054;24.546;2022-12-18T01:34:48;98838.63;;;11.56;100.00
20023;BME280;10172;42.054;24.546;2022-12-18T01:37:14;98837.97;;;12.61;100.00
20023;BME280;10172;42.054;24.546;2022-12-18T01:39:39;98854.19;;;12.97;100.00
20023;BME280;10172;42.054;24.546;2022-12-18T01:42:13;98856.03;;;13.22;100.00
20023;BME280;10172;42.054;24.546;2022-12-18T01:44:59;98868.34;;;13.62;100.00
20023;BME280;10172;42.054;24.546;2022-12-18T01:52:50;98871.75;;;14.01;100.00
20023;BME280;10172;42.054;24.546;2022-12-18T01:55:19;98873.25;;;13.56;100.00
20023;BME280;10172;42.054;24.546;2022-12-18T01:57:46;98873.59;;;12.47;100.00
20023;BME280;10172;42.054;24.546;2022-12-18T02:00:17;98870.06;;;12.47;100.00
20023;BME280;10172;42.054;24.546;2022-12-18T02:02:44;98875.25;;;12.36;100.00
20023;BME280;10172;42.054;24.546;2022-12-18T02:05:11;98877.56;;;13.06;100.00
20023;BME280;10172;42.054;24.546;2022-12-18T02:10:31;98877.94;;;13.77;100.00
20023;BME280;10172;42.054;24.546;2022-12-18T02:18:52;98873.63;;;11.36;100.00
20023;BME280;10172;42.054;24.546;2022-12-18T02:24:59;98865.00;;;10.74;100.00
20023;BME280;10172;42.054;24.546;2022-12-18T02:27:28;98870.81;;;11.53;100.00
20023;BME280;10172;42.054;24.546;2022-12-18T02:29:57;98872.91;;;11.76;100.00
20023;BME280;10172;42.054;24.546;2022-12-18T02:32:27;98880.78;;;11.21;100.00
20023;BME280;10172;42.054;24.546;2022-12-18T02:34:56;98867.84;;;11.29;100.00
20023;BME280;10172;42.054;24.546;2022-12-18T02:37:25;98862.50;;;10.71;100.00
20023;BME280;10172;42.054;24.546;2022-12-18T02:39:54;98866.41;;;11.24;100.00
20023;BME280;10172;42.054;24.546;2022-12-18T02:42:22;98864.88;;;10.76;100.00
20023;BME280;10172;42.054;24.546;2022-12-18T02:44:50;98870.25;;;10.60;100.00
20023;BME280;10172;42.054;24.546;2022-12-18T02:47:18;98874.78;;;10.74;100.00
20023;BME280;10172;42.054;24.546;2022-12-18T02:50:00;98870.31;;;10.74;100.00
20023;BME280;10172;42.054;24.546;2022-12-18T02:52:45;98870.66;;;10.68;100.00
20023;BME280;10172;42.054;24.546;2022-12-18T02:55:34;98887.72;;;10.50;100.00
20023;BME280;10172;42.054;24.546;2022-12-18T03:01:56;98874.28;;;10.67;100.00
20023;BME280;10172;42.054;24.546;2022-12-18T03:03:59;98885.00;;;10.96;100.00
20023;BME280;10172;42.054;24.546;2022-12-18T03:06:33;98881.47;;;10.81;100.00
20023;BME280;10172;42.054;24.546;2022-12-18T03:09:07;98886.88;;;10.34;100.00
20023;BME280;10172;42.054;24.546;2022-12-18T03:11:38;98898.63;;;10.30;100.00
20023;BME280;10172;42.054;24.546;2022-12-18T03:14:25;98890.72;;;10.44;100.00
20023;BME280;10172;42.054;24.546;2022-12-18T03:16:58;98892.03;;;10.37;100.00
20023;BME280;10172;42.054;24.546;2022-12-18T03:19:28;98891.41;;;10.48;100.00
20023;BME280;10172;42.054;24.546;2022-12-18T03:21:56;98896.56;;;10.80;100.00
20023;BME280;10172;42.054;24.546;2022-12-18T03:24:24;98894.50;;;10.86;100.00
20023;BME280;10172;42.054;24.546;2022-12-18T03:26:54;98906.19;;;11.27;100.00
20023;BME280;10172;42.054;24.546;2022-12-18T03:29:28;98911.19;;;11.17;100.00
20023;BME280;10172;42.054;24.546;2022-12-18T03:32:00;98918.41;;;10.09;100.00
20023;BME280;10172;42.054;24.546;2022-12-18T03:34:33;98905.06;;;10.42;100.00
20023;BME280;10172;42.054;24.546;2022-12-18T03:37:01;98916.22;;;10.48;100.00
20023;BME280;10172;42.054;24.546;2022-12-18T03:39:27;98916.81;;;10.22;100.00
20023;BME280;10172;42.054;24.546;2022-12-18T03:42:01;98933.19;;;10.61;100.00
20023;BME280;10172;42.054;24.546;2022-12-18T03:49:56;98937.25;;;10.82;100.00
20023;BME280;10172;42.054;24.546;2022-12-18T03:52:54;98945.78;;;10.58;100.00
20023;BME280;10172;42.054;24.546;2022-12-18T03:55:22;98947.13;;;10.35;100.00
20023;BME280;10172;42.054;24.546;2022-12-18T03:57:51;98952.91;;;10.57;100.00
20023;BME280;10172;42.054;24.546;2022-12-18T04:00:18;98947.25;;;10.63;100.00
20023;BME280;10172;42.054;24.546;2022-12-18T04:02:48;98959.44;;;10.36;100.00
20023;BME280;10172;42.054;24.546;2022-12-18T04:05:17;98955.22;;;10.63;100.00
20023;BME280;10172;42.054;24.546;2022-12-18T04:07:45;98959.56;;;10.80;100.00
20023;BME280;10172;42.054;24.546;2022-12-18T04:10:12;98969.19;;;10.82;100.00
20023;BME280;10172;42.054;24.546;2022-12-18T04:12:39;98957.88;;;10.63;100.00
20023;BME280;10172;42.054;24.546;2022-12-18T04:15:05;98977.97;;;10.22;100.00
20023;BME280;10172;42.054;24.546;2022-12-18T04:17:32;98969.66;;;10.44;100.00
20023;BME280;10172;42.054;24.546;2022-12-18T04:19:57;98965.69;;;10.66;100.00
20023;BME280;10172;42.054;24.546;2022-12-18T04:22:22;98974.72;;;10.48;100.00
20023;BME280;10172;42.054;24.546;2022-12-18T04:24:48;98974.84;;;10.76;100.00
20023;BME280;10172;42.054;24.546;2022-12-18T04:27:13;98987.34;;;11.50;100.00
20023;BME280;10172;42.054;24.546;2022-12-18T04:29:39;98980.34;;;11.49;100.00
20023;BME280;10172;42.054;24.546;2022-12-18T04:32:04;98979.56;;;11.17;100.00
20023;BME280;10172;42.054;24.546;2022-12-18T04:34:30;98990.53;;;10.51;100.00
20023;BME280;10172;42.054;24.546;2022-12-18T04:36:55;98987.81;;;10.82;100.00
20023;BME280;10172;42.054;24.546;2022-12-18T04:39:21;98992.03;;;10.87;100.00
20023;BME280;10172;42.054;24.546;2022-12-18T04:41:47;98997.91;;;10.62;100.00
20023;BME280;10172;42.054;24.546;2022-12-18T04:44:12;98993.03;;;11.00;100.00
20023;BME280;10172;42.054;24.546;2022-12-18T04:46:38;99008.69;;;11.20;100.00
20023;BME280;10172;42.054;24.546;2022-12-18T04:49:03;99011.09;;;11.24;100.00
20023;BME280;10172;42.054;24.546;2022-12-18T04:51:28;99011.53;;;11.17;100.00
20023;BME280;10172;42.054;24.546;2022-12-18T04:53:54;99016.69;;;10.43;100.00
20023;BME280;10172;42.054;24.546;2022-12-18T04:56:20;99030.78;;;11.06;100.00
20023;BME280;10172;42.054;24.546;2022-12-18T04:58:45;99040.69;;;10.09;100.00
20023;BME280;10172;42.054;24.546;2022-12-18T05:01:13;99051.44;;;10.40;100.00
20023;BME280;10172;42.054;24.546;2022-12-18T05:03:39;99037.38;;;10.54;100.00
20023;BME280;10172;42.054;24.546;2022-12-18T05:06:05;99045.28;;;10.87;100.00
20023;BME280;10172;42.054;24.546;2022-12-18T05:08:31;99056.47;;;11.07;100.00
20023;BME280;10172;42.054;24.546;2022-12-18T05:11:11;99056.03;;;11.15;100.00
20023;BME280;10172;42.054;24.546;2022-12-18T05:13:37;99065.88;;;10.83;100.00
20023;BME280;10172;42.054;24.546;2022-12-18T05:16:03;99053.16;;;10.88;100.00
20023;BME280;10172;42.054;24.546;2022-12-18T05:18:29;99072.34;;;10.46;100.00
20023;BME280;10172;42.054;24.546;2022-12-18T05:20:55;99065.50;;;9.92;100.00
20023;BME280;10172;42.054;24.546;2022-12-18T05:23:22;99069.50;;;10.01;100.00
20023;BME280;10172;42.054;24.546;2022-12-18T05:25:57;99084.09;;;10.09;100.00
20023;BME280;10172;42.054;24.546;2022-12-18T05:28:24;99090.94;;;10.31;100.00
20023;BME280;10172;42.054;24.546;2022-12-18T05:30:51;99081.56;;;9.74;100.00
20023;BME280;10172;42.054;24.546;2022-12-18T05:33:21;99098.25;;;10.10;100.00
20023;BME280;10172;42.054;24.546;2022-12-18T05:35:51;99100.78;;;10.13;100.00
20023;BME280;10172;42.054;24.546;2022-12-18T05:38:17;99109.56;;;9.81;100.00
20023;BME280;10172;42.054;24.546;2022-12-18T05:40:43;99112.13;;;9.65;100.00
20023;BME280;10172;42.054;24.546;2022-12-18T05:43:09;99108.94;;;10.08;100.00
20023;BME280;10172;42.054;24.546;2022-12-18T05:45:38;99124.06;;;10.08;100.00
20023;BME280;10172;42.054;24.546;2022-12-18T05:48:04;99127.22;;;10.16;100.00
20023;BME280;10172;42.054;24.546;2022-12-18T05:50:30;99123.63;;;9.48;100.00
20023;BME280;10172;42.054;24.546;2022-12-18T05:52:55;99121.78;;;10.00;100.00
20023;BME280;10172;42.054;24.546;2022-12-18T05:55:21;99128.78;;;9.69;100.00
20023;BME280;10172;42.054;24.546;2022-12-18T05:57:46;99129.53;;;9.88;100.00
20023;BME280;10172;42.054;24.546;2022-12-18T06:00:12;99135.63;;;10.07;100.00
20023;BME280;10172;42.054;24.546;2022-12-18T06:02:38;99129.38;;;10.08;100.00
20023;BME280;10172;42.054;24.546;2022-12-18T06:05:04;99131.44;;;9.69;100.00
20023;BME280;10172;42.054;24.546;2022-12-18T06:07:30;99143.47;;;9.76;100.00
20023;BME280;10172;42.054;24.546;2022-12-18T06:09:55;99152.34;;;10.09;100.00
20023;BME280;10172;42.054;24.546;2022-12-18T06:12:21;99152.84;;;10.00;100.00
20023;BME280;10172;42.054;24.546;2022-12-18T06:14:46;99152.34;;;10.09;100.00
20023;BME280;10172;42.054;24.546;2022-12-18T06:17:11;99155.19;;;9.89;100.00
20023;BME280;10172;42.054;24.546;2022-12-18T06:19:37;99163.13;;;10.06;100.00
20023;BME280;10172;42.054;24.546;2022-12-18T06:22:03;99162.22;;;9.90;100.00
20023;BME280;10172;42.054;24.546;2022-12-18T06:24:29;99168.63;;;9.69;100.00
20023;BME280;10172;42.054;24.546;2022-12-18T06:26:55;99168.16;;;10.12;100.00
20023;BME280;10172;42.054;24.546;2022-12-18T06:29:20;99181.59;;;10.09;100.00
20023;BME280;10172;42.054;24.546;2022-12-18T06:31:45;99177.41;;;10.05;100.00
20023;BME280;10172;42.054;24.546;2022-12-18T06:34:11;99181.44;;;9.95;100.00
20023;BME280;10172;42.054;24.546;2022-12-18T06:36:36;99192.56;;;10.20;100.00
20023;BME280;10172;42.054;24.546;2022-12-18T06:39:02;99196.94;;;10.38;100.00
20023;BME280;10172;42.054;24.546;2022-12-18T06:41:27;99197.91;;;10.70;100.00
20023;BME280;10172;42.054;24.546;2022-12-18T06:43:53;99193.03;;;10.11;100.00
20023;BME280;10172;42.054;24.546;2022-12-18T06:46:18;99213.66;;;9.89;100.00
20023;BME280;10172;42.054;24.546;2022-12-18T06:48:47;99201.59;;;9.82;100.00
20023;BME280;10172;42.054;24.546;2022-12-18T06:51:16;99207.28;;;10.27;100.00
20023;BME280;10172;42.054;24.546;2022-12-18T06:53:41;99217.69;;;10.32;100.00
20023;BME280;10172;42.054;24.546;2022-12-18T06:56:07;99215.88;;;10.15;100.00
20023;BME280;10172;42.054;24.546;2022-12-18T06:58:32;99217.81;;;9.94;100.00
20023;BME280;10172;42.054;24.546;2022-12-18T07:01:02;99221.31;;;9.95;100.00
20023;BME280;10172;42.054;24.546;2022-12-18T07:03:28;99226.47;;;9.98;100.00
20023;BME280;10172;42.054;24.546;2022-12-18T07:05:53;99226.16;;;9.70;100.00
20023;BME280;10172;42.054;24.546;2022-12-18T07:08:19;99221.75;;;9.69;100.00
20023;BME280;10172;42.054;24.546;2022-12-18T07:10:44;99227.25;;;9.83;100.00
20023;BME280;10172;42.054;24.546;2022-12-18T07:13:10;99224.06;;;10.10;100.00
20023;BME280;10172;42.054;24.546;2022-12-18T07:15:35;99230.97;;;9.61;100.00
20023;BME280;10172;42.054;24.546;2022-12-18T07:18:00;99235.47;;;9.95;100.00
20023;BME280;10172;42.054;24.546;2022-12-18T07:20:26;99230.03;;;9.62;100.00
20023;BME280;10172;42.054;24.546;2022-12-18T07:22:52;99238.25;;;10.28;100.00
20023;BME280;10172;42.054;24.546;2022-12-18T07:25:20;99231.84;;;10.32;100.00
20023;BME280;10172;42.054;24.546;2022-12-18T07:27:46;99236.03;;;10.02;100.00
20023;BME280;10172;42.054;24.546;2022-12-18T07:30:11;99254.16;;;9.94;100.00
20023;BME280;10172;42.054;24.546;2022-12-18T07:32:37;99248.13;;;9.90;100.00
20023;BME280;10172;42.054;24.546;2022-12-18T07:35:02;99268.38;;;9.93;100.00
20023;BME280;10172;42.054;24.546;2022-12-18T07:37:28;99264.69;;;9.95;100.00
20023;BME280;10172;42.054;24.546;2022-12-18T07:39:53;99255.88;;;9.95;100.00
20023;BME280;10172;42.054;24.546;2022-12-18T07:42:19;99264.69;;;9.78;100.00
20023;BME280;10172;42.054;24.546;2022-12-18T07:44:59;99268.66;;;9.87;100.00
20023;BME280;10172;42.054;24.546;2022-12-18T07:47:25;99277.50;;;10.23;100.00
20023;BME280;10172;42.054;24.546;2022-12-18T07:49:51;99283.00;;;10.01;100.00
20023;BME280;10172;42.054;24.546;2022-12-18T07:52:16;99281.66;;;9.76;100.00
20023;BME280;10172;42.054;24.546;2022-12-18T07:54:42;99274.41;;;10.32;100.00
20023;BME280;10172;42.054;24.546;2022-12-18T07:57:08;99285.56;;;9.86;100.00
20023;BME280;10172;42.054;24.546;2022-12-18T07:59:34;99284.06;;;10.33;100.00
20023;BME280;10172;42.054;24.546;2022-12-18T08:01:59;99289.28;;;9.65;100.00
20023;BME280;10172;42.054;24.546;2022-12-18T08:04:25;99300.34;;;9.55;100.00
20023;BME280;10172;42.054;24.546;2022-12-18T08:06:51;99298.31;;;9.60;100.00
20023;BME280;10172;42.054;24.546;2022-12-18T08:09:19;99297.28;;;9.82;100.00
20023;BME280;10172;42.054;24.546;2022-12-18T08:11:44;99293.25;;;9.92;100.00
20023;BME280;10172;42.054;24.546;2022-12-18T08:14:10;99294.19;;;10.27;100.00
20023;BME280;10172;42.054;24.546;2022-12-18T08:16:35;99305.50;;;10.30;100.00
20023;BME280;10172;42.054;24.546;2022-12-18T08:19:01;99308.97;;;10.32;100.00
20023;BME280;10172;42.054;24.546;2022-12-18T08:21:28;99310.84;;;10.11;100.00
20023;BME280;10172;42.054;24.546;2022-12-18T08:23:58;99308.56;;;10.23;100.00
20023;BME280;10172;42.054;24.546;2022-12-18T08:26:26;99311.09;;;10.07;100.00
20023;BME280;10172;42.054;24.546;2022-12-18T08:28:59;99300.66;;;10.21;100.00
20023;BME280;10172;42.054;24.546;2022-12-18T08:31:26;99310.81;;;10.30;100.00
20023;BME280;10172;42.054;24.546;2022-12-18T08:33:53;99311.09;;;10.07;100.00
20023;BME280;10172;42.054;24.546;2022-12-18T08:36:19;99305.34;;;9.80;100.00
20023;BME280;10172;42.054;24.546;2022-12-18T08:38:46;99315.06;;;9.98;100.00
20023;BME280;10172;42.054;24.546;2022-12-18T08:41:13;99313.19;;;10.53;100.00
20023;BME280;10172;42.054;24.546;2022-12-18T08:43:39;99312.47;;;10.50;100.00
20023;BME280;10172;42.054;24.546;2022-12-18T08:46:25;99314.28;;;11.16;100.00
20023;BME280;10172;42.054;24.546;2022-12-18T08:48:51;99315.19;;;11.00;100.00
20023;BME280;10172;42.054;24.546;2022-12-18T08:51:18;99318.38;;;10.56;100.00
20023;BME280;10172;42.054;24.546;2022-12-18T08:53:44;99305.47;;;10.49;100.00
20023;BME280;10172;42.054;24.546;2022-12-18T08:56:10;99303.78;;;11.13;100.00
20023;BME280;10172;42.054;24.546;2022-12-18T08:58:35;99295.13;;;10.93;100.00
20023;BME280;10172;42.054;24.546;2022-12-18T09:01:03;99309.47;;;11.23;100.00
20023;BME280;10172;42.054;24.546;2022-12-18T09:03:29;99310.53;;;10.53;100.00
20023;BME280;10172;42.054;24.546;2022-12-18T09:05:54;99307.31;;;10.12;100.00
20023;BME280;10172;42.054;24.546;2022-12-18T09:08:20;99297.47;;;10.32;100.00
20023;BME280;10172;42.054;24.546;2022-12-18T09:10:48;99309.16;;;10.79;100.00
20023;BME280;10172;42.054;24.546;2022-12-18T09:13:15;99304.50;;;10.15;100.00
20023;BME280;10172;42.054;24.546;2022-12-18T09:15:48;99315.47;;;10.27;100.00
20023;BME280;10172;42.054;24.546;2022-12-18T09:18:16;99309.28;;;10.26;100.00
20023;BME280;10172;42.054;24.546;2022-12-18T09:20:42;99312.50;;;10.33;100.00
20023;BME280;10172;42.054;24.546;2022-12-18T09:23:08;99313.34;;;10.33;100.00
20023;BME280;10172;42.054;24.546;2022-12-18T09:25:35;99300.66;;;10.21;100.00
20023;BME280;10172;42.054;24.546;2022-12-18T09:30:40;99317.19;;;10.62;100.00
20023;BME280;10172;42.054;24.546;2022-12-18T09:33:06;99321.31;;;10.50;100.00
20023;BME280;10172;42.054;24.546;2022-12-18T09:35:38;99320.22;;;10.01;100.00
20023;BME280;10172;42.054;24.546;2022-12-18T09:38:04;99317.53;;;9.84;100.00
20023;BME280;10172;42.054;24.546;2022-12-18T09:40:35;99312.50;;;9.97;100.00
20023;BME280;10172;42.054;24.546;2022-12-18T09:43:04;99323.47;;;10.08;100.00
20023;BME280;10172;42.054;24.546;2022-12-18T09:45:41;99323.41;;;9.91;100.00
20023;BME280;10172;42.054;24.546;2022-12-18T09:48:23;99327.94;;;10.25;100.00
20023;BME280;10172;42.054;24.546;2022-12-18T09:50:51;99315.50;;;10.08;100.00
20023;BME280;10172;42.054;24.546;2022-12-18T09:53:23;99326.16;;;10.25;100.00
20023;BME280;10172;42.054;24.546;2022-12-18T09:55:50;99323.59;;;10.24;100.00
20023;BME280;10172;42.054;24.546;2022-12-18T09:58:24;99331.44;;;10.08;100.00
20023;BME280;10172;42.054;24.546;2022-12-18T10:00:52;99325.16;;;9.92;100.00
20023;BME280;10172;42.054;24.546;2022-12-18T10:03:18;99326.94;;;10.08;100.00
20023;BME280;10172;42.054;24.546;2022-12-18T10:10:52;99314.22;;;9.79;100.00
20023;BME280;10172;42.054;24.546;2022-12-18T10:13:35;99331.50;;;10.06;100.00
20023;BME280;10172;42.054;24.546;2022-12-18T10:19:05;99332.88;;;9.96;100.00
20023;BME280;10172;42.054;24.546;2022-12-18T10:21:48;99324.69;;;10.01;100.00
20023;BME280;10172;42.054;24.546;2022-12-18T10:27:13;99329.06;;;10.02;100.00
20023;BME280;10172;42.054;24.546;2022-12-18T10:29:41;99324.78;;;9.99;100.00
20023;BME280;10172;42.054;24.546;2022-12-18T10:32:07;99321.38;;;10.14;100.00
20023;BME280;10172;42.054;24.546;2022-12-18T10:34:37;99319.44;;;9.63;100.00
20023;BME280;10172;42.054;24.546;2022-12-18T10:37:06;99321.09;;;10.02;100.00
20023;BME280;10172;42.054;24.546;2022-12-18T10:39:36;99316.16;;;10.30;100.00
20023;BME280;10172;42.054;24.546;2022-12-18T10:42:11;99325.38;;;10.23;100.00
20023;BME280;10172;42.054;24.546;2022-12-18T10:44:40;99324.69;;;10.01;100.00
20023;BME280;10172;42.054;24.546;2022-12-18T10:47:19;99312.03;;;10.59;100.00
20023;BME280;10172;42.054;24.546;2022-12-18T10:49:50;99328.84;;;10.42;100.00
20023;BME280;10172;42.054;24.546;2022-12-18T10:52:21;99331.97;;;10.50;100.00
20023;BME280;10172;42.054;24.546;2022-12-18T10:54:51;99331.81;;;10.36;100.00
20023;BME280;10172;42.054;24.546;2022-12-18T10:59:53;99320.72;;;10.45;100.00
20023;BME280;10172;42.054;24.546;2022-12-18T11:02:34;99324.56;;;10.57;100.00
20023;BME280;10172;42.054;24.546;2022-12-18T11:05:00;99320.50;;;10.14;100.00
20023;BME280;10172;42.054;24.546;2022-12-18T11:07:46;99319.91;;;10.77;100.00
20023;BME280;10172;42.054;24.546;2022-12-18T11:10:17;99318.53;;;10.53;100.00
20023;BME280;10172;42.054;24.546;2022-12-18T11:12:43;99320.09;;;10.40;100.00
20023;BME280;10172;42.054;24.546;2022-12-18T11:15:22;99319.25;;;10.90;100.00
20023;BME280;10172;42.054;24.546;2022-12-18T11:17:51;99320.47;;;10.67;100.00
20023;BME280;10172;42.054;24.546;2022-12-18T11:20:34;99319.63;;;10.32;100.00
20023;BME280;10172;42.054;24.546;2022-12-18T11:23:02;99316.94;;;10.32;100.00
20023;BME280;10172;42.054;24.546;2022-12-18T11:25:30;99327.69;;;10.12;100.00
20023;BME280;10172;42.054;24.546;2022-12-18T11:27:58;99317.88;;;10.31;100.00
20023;BME280;10172;42.054;24.546;2022-12-18T11:30:28;99318.81;;;10.47;100.00
20023;BME280;10172;42.054;24.546;2022-12-18T11:38:24;99326.63;;;10.33;100.00
20023;BME280;10172;42.054;24.546;2022-12-18T11:41:14;99324.06;;;10.32;100.00
20023;BME280;10172;42.054;24.546;2022-12-18T11:43:47;99340.47;;;10.04;100.00
20023;BME280;10172;42.054;24.546;2022-12-18T11:46:21;99340.88;;;10.32;100.00
20023;BME280;10172;42.054;24.546;2022-12-18T11:48:58;99334.53;;;9.99;100.00
20023;BME280;10172;42.054;24.546;2022-12-18T11:51:43;99331.88;;;9.99;100.00
20023;BME280;10172;42.054;24.546;2022-12-18T11:54:14;99335.03;;;10.07;100.00
20023;BME280;10172;42.054;24.546;2022-12-18T11:56:47;99338.09;;;10.16;100.00
20023;BME280;10172;42.054;24.546;2022-12-18T12:01:56;99333.41;;;9.86;100.00
20023;BME280;10172;42.054;24.546;2022-12-18T12:16:02;99337.19;;;10.17;100.00
20023;BME280;10172;42.054;24.546;2022-12-18T12:21:39;99350.72;;;9.94;100.00
20023;BME280;10172;42.054;24.546;2022-12-18T12:35:52;99362.66;;;9.86;100.00
20023;BME280;10172;42.054;24.546;2022-12-18T12:38:16;99368.38;;;9.77;100.00
20023;BME280;10172;42.054;24.546;2022-12-18T12:40:58;99367.53;;;9.76;100.00
20023;BME280;10172;42.054;24.546;2022-12-18T12:43:27;99374.97;;;9.87;100.00
20023;BME280;10172;42.054;24.546;2022-12-18T12:51:21;99378.72;;;9.83;100.00
20023;BME280;10172;42.054;24.546;2022-12-18T12:53:48;99376.72;;;9.50;100.00
20023;BME280;10172;42.054;24.546;2022-12-18T12:56:16;99388.63;;;9.60;100.00
20023;BME280;10172;42.054;24.546;2022-12-18T13:01:37;99397.63;;;10.14;100.00
20023;BME280;10172;42.054;24.546;2022-12-18T13:04:30;99399.84;;;9.48;100.00
20023;BME280;10172;42.054;24.546;2022-12-18T13:12:35;99400.25;;;9.39;100.00
20023;BME280;10172;42.054;24.546;2022-12-18T13:15:28;99415.34;;;9.57;100.00
20023;BME280;10172;42.054;24.546;2022-12-18T13:18:13;99414.28;;;9.61;100.00
20023;BME280;10172;42.054;24.546;2022-12-18T13:20:43;99417.81;;;9.81;100.00
20023;BME280;10172;42.054;24.546;2022-12-18T13:25:48;99412.34;;;10.02;100.00
20023;BME280;10172;42.054;24.546;2022-12-18T13:28:16;99413.41;;;9.42;100.00
20023;BME280;10172;42.054;24.546;2022-12-18T13:38:23;99423.31;;;9.57;100.00
20023;BME280;10172;42.054;24.546;2022-12-18T13:43:23;99430.03;;;9.07;100.00
20023;BME280;10172;42.054;24.546;2022-12-18T13:45:59;99432.47;;;9.12;100.00
20023;BME280;10172;42.054;24.546;2022-12-18T13:48:26;99438.91;;;9.06;100.00
20023;BME280;10172;42.054;24.546;2022-12-18T13:51:13;99444.28;;;9.25;100.00
20023;BME280;10172;42.054;24.546;2022-12-18T13:53:46;99444.00;;;9.31;100.00
20023;BME280;10172;42.054;24.546;2022-12-18T13:56:17;99445.63;;;8.94;100.00
20023;BME280;10172;42.054;24.546;2022-12-18T13:58:43;99447.94;;;9.02;100.00
20023;BME280;10172;42.054;24.546;2022-12-18T14:01:29;99459.44;;;9.02;100.00
20023;BME280;10172;42.054;24.546;2022-12-18T14:04:11;99459.22;;;9.27;100.00
20023;BME280;10172;42.054;24.546;2022-12-18T14:06:37;99462.81;;;9.26;100.00
20023;BME280;10172;42.054;24.546;2022-12-18T14:09:03;99466.38;;;9.25;100.00
20023;BME280;10172;42.054;24.546;2022-12-18T14:11:29;99475.78;;;9.52;100.00
20023;BME280;10172;42.054;24.546;2022-12-18T14:13:56;99477.41;;;9.36;100.00
20023;BME280;10172;42.054;24.546;2022-12-18T14:16:21;99469.97;;;9.83;100.00
20023;BME280;10172;42.054;24.546;2022-12-18T14:18:55;99490.81;;;9.33;100.00
20023;BME280;10172;42.054;24.546;2022-12-18T14:21:26;99491.41;;;9.20;100.00
20023;BME280;10172;42.054;24.546;2022-12-18T14:24:13;99482.88;;;9.13;100.00
20023;BME280;10172;42.054;24.546;2022-12-18T14:26:39;99493.06;;;9.02;100.00
20023;BME280;10172;42.054;24.546;2022-12-18T14:32:05;99502.03;;;8.99;100.00
20023;BME280;10172;42.054;24.546;2022-12-18T14:34:30;99497.66;;;8.77;100.00
20023;BME280;10172;42.054;24.546;2022-12-18T14:36:56;99495.13;;;8.74;100.00
20023;BME280;10172;42.054;24.546;2022-12-18T14:39:21;99502.63;;;9.06;100.00